sensor_id;sensor_type;location;lat;lon;timestamp;temperature;humidity
1476;DHT22;730;48.870;12.542;2023-09-19T00:01:35;17.50;1.80
1476;DHT22;730;48.870;12.542;2023-09-19T00:04:01;17.50;1.70
1476;DHT22;730;48.870;12.542;2023-09-19T00:06:29;17.60;1.60
1476;DHT22;730;48.870;12.542;2023-09-19T00:08:57;17.60;1.40
1476;DHT22;730;48.870;12.542;2023-09-19T00:11:26;17.60;1.30
1476;DHT22;730;48.870;12.542;2023-09-19T00:13:53;17.60;1.20
1476;DHT22;730;48.870;12.542;2023-09-19T00:16:19;17.50;1.30
1476;DHT22;730;48.870;12.542;2023-09-19T00:18:45;17.50;1.40
1476;DHT22;730;48.870;12.542;2023-09-19T00:21:12;17.50;1.30
1476;DHT22;730;48.870;12.542;2023-09-19T00:23:38;17.40;1.60
1476;DHT22;730;48.870;12.542;2023-09-19T00:26:06;17.40;1.40
1476;DHT22;730;48.870;12.542;2023-09-19T00:28:32;17.40;1.30
1476;DHT22;730;48.870;12.542;2023-09-19T00:30:58;17.40;1.20
1476;DHT22;730;48.870;12.542;2023-09-19T00:33:27;17.40;1.40
1476;DHT22;730;48.870;12.542;2023-09-19T00:35:56;17.50;1.60
1476;DHT22;730;48.870;12.542;2023-09-19T00:38:23;17.50;1.60
1476;DHT22;730;48.870;12.542;2023-09-19T00:40:53;17.50;1.40
1476;DHT22;730;48.870;12.542;2023-09-19T00:43:20;17.50;1.30
1476;DHT22;730;48.870;12.542;2023-09-19T00:45:49;17.50;1.00
1476;DHT22;730;48.870;12.542;2023-09-19T00:48:17;17.50;1.10
1476;DHT22;730;48.870;12.542;2023-09-19T00:50:46;17.50;1.00
1476;DHT22;730;48.870;12.542;2023-09-19T00:53:19;17.50;1.00
1476;DHT22;730;48.870;12.542;2023-09-19T00:55:48;17.60;1.00
1476;DHT22;730;48.870;12.542;2023-09-19T00:58:14;17.50;1.00
1476;DHT22;730;48.870;12.542;2023-09-19T01:00:42;17.50;1.00
1476;DHT22;730;48.870;12.542;2023-09-19T01:03:11;17.50;1.00
1476;DHT22;730;48.870;12.542;2023-09-19T01:05:39;17.50;1.00
1476;DHT22;730;48.870;12.542;2023-09-19T01:08:05;17.60;1.00
1476;DHT22;730;48.870;12.542;2023-09-19T01:10:33;17.60;1.00
1476;DHT22;730;48.870;12.542;2023-09-19T01:13:27;17.60;1.00
1476;DHT22;730;48.870;12.542;2023-09-19T01:19:01;17.60;1.00
1476;DHT22;730;48.870;12.542;2023-09-19T01:27:32;17.50;1.00
1476;DHT22;730;48.870;12.542;2023-09-19T01:30:17;17.50;1.10
1476;DHT22;730;48.870;12.542;2023-09-19T01:32:44;17.50;1.10
1476;DHT22;730;48.870;12.542;2023-09-19T01:35:12;17.50;1.00
1476;DHT22;730;48.870;12.542;2023-09-19T01:37:39;17.50;1.00
1476;DHT22;730;48.870;12.542;2023-09-19T01:40:07;17.50;1.00
1476;DHT22;730;48.870;12.542;2023-09-19T01:42:50;17.50;1.00
1476;DHT22;730;48.870;12.542;2023-09-19T01:48:42;17.50;1.00
1476;DHT22;730;48.870;12.542;2023-09-19T01:51:24;17.50;1.00
1476;DHT22;730;48.870;12.542;2023-09-19T01:54:00;17.50;1.00
1476;DHT22;730;48.870;12.542;2023-09-19T01:56:37;17.40;1.00
1476;DHT22;730;48.870;12.542;2023-09-19T01:59:09;17.40;1.30
1476;DHT22;730;48.870;12.542;2023-09-19T02:01:37;17.40;1.40
1476;DHT22;730;48.870;12.542;2023-09-19T02:04:04;17.30;1.40
1476;DHT22;730;48.870;12.542;2023-09-19T02:06:30;17.40;1.60
1476;DHT22;730;48.870;12.542;2023-09-19T02:08:57;17.30;1.50
1476;DHT22;730;48.870;12.542;2023-09-19T02:11:23;17.30;1.60
1476;DHT22;730;48.870;12.542;2023-09-19T02:13:50;17.40;1.60
1476;DHT22;730;48.870;12.542;2023-09-19T02:16:20;17.30;1.60
1476;DHT22;730;48.870;12.542;2023-09-19T02:18:50;17.40;1.60
1476;DHT22;730;48.870;12.542;2023-09-19T02:21:17;17.30;1.60
1476;DHT22;730;48.870;12.542;2023-09-19T02:23:46;17.30;1.60
1476;DHT22;730;48.870;12.542;2023-09-19T02:26:13;17.40;1.50
1476;DHT22;730;48.870;12.542;2023-09-19T02:28:40;17.40;1.50
1476;DHT22;730;48.870;12.542;2023-09-19T02:31:06;17.40;1.50
1476;DHT22;730;48.870;12.542;2023-09-19T02:33:32;17.40;1.50
1476;DHT22;730;48.870;12.542;2023-09-19T02:35:59;17.40;1.50
1476;DHT22;730;48.870;12.542;2023-09-19T02:38:25;17.40;1.40
1476;DHT22;730;48.870;12.542;2023-09-19T02:40:52;17.40;1.30
1476;DHT22;730;48.870;12.542;2023-09-19T02:43:18;17.40;1.30
1476;DHT22;730;48.870;12.542;2023-09-19T02:45:45;17.40;1.10
1476;DHT22;730;48.870;12.542;2023-09-19T02:48:12;17.50;1.20
1476;DHT22;730;48.870;12.542;2023-09-19T02:50:38;17.50;1.10
1476;DHT22;730;48.870;12.542;2023-09-19T02:53:06;17.50;1.00
1476;DHT22;730;48.870;12.542;2023-09-19T02:55:32;17.50;1.00
1476;DHT22;730;48.870;12.542;2023-09-19T02:57:58;17.50;1.00
1476;DHT22;730;48.870;12.542;2023-09-19T03:00:24;17.40;1.00
1476;DHT22;730;48.870;12.542;2023-09-19T03:02:53;17.50;1.00
1476;DHT22;730;48.870;12.542;2023-09-19T03:05:20;17.50;1.00
1476;DHT22;730;48.870;12.542;2023-09-19T03:07:47;17.50;1.00
1476;DHT22;730;48.870;12.542;2023-09-19T03:10:17;17.50;1.00
1476;DHT22;730;48.870;12.542;2023-09-19T03:12:43;17.50;1.00
1476;DHT22;730;48.870;12.542;2023-09-19T03:15:14;17.50;1.00
1476;DHT22;730;48.870;12.542;2023-09-19T03:17:45;17.60;1.00
1476;DHT22;730;48.870;12.542;2023-09-19T03:20:11;17.50;1.00
1476;DHT22;730;48.870;12.542;2023-09-19T03:22:39;17.50;1.00
1476;DHT22;730;48.870;12.542;2023-09-19T03:25:08;17.50;1.00
1476;DHT22;730;48.870;12.542;2023-09-19T03:27:38;17.50;1.00
1476;DHT22;730;48.870;12.542;2023-09-19T03:30:05;17.40;1.00
1476;DHT22;730;48.870;12.542;2023-09-19T03:32:35;17.40;1.00
1476;DHT22;730;48.870;12.542;2023-09-19T03:35:02;17.50;1.00
1476;DHT22;730;48.870;12.542;2023-09-19T03:37:31;17.50;1.00
1476;DHT22;730;48.870;12.542;2023-09-19T03:39:59;17.50;1.00
1476;DHT22;730;48.870;12.542;2023-09-19T03:42:25;17.50;1.00
1476;DHT22;730;48.870;12.542;2023-09-19T03:44:52;17.50;1.00
1476;DHT22;730;48.870;12.542;2023-09-19T03:47:18;17.40;1.00
1476;DHT22;730;48.870;12.542;2023-09-19T03:49:47;17.50;1.00
1476;DHT22;730;48.870;12.542;2023-09-19T03:52:14;17.50;1.00
1476;DHT22;730;48.870;12.542;2023-09-19T03:54:41;17.50;1.00
1476;DHT22;730;48.870;12.542;2023-09-19T03:57:08;17.50;1.00
1476;DHT22;730;48.870;12.542;2023-09-19T03:59:35;17.50;1.00
1476;DHT22;730;48.870;12.542;2023-09-19T04:02:01;17.50;1.00
1476;DHT22;730;48.870;12.542;2023-09-19T04:04:28;17.50;1.00
1476;DHT22;730;48.870;12.542;2023-09-19T04:06:55;17.40;1.00
1476;DHT22;730;48.870;12.542;2023-09-19T04:09:21;17.40;1.00
1476;DHT22;730;48.870;12.542;2023-09-19T04:11:47;17.50;1.00
1476;DHT22;730;48.870;12.542;2023-09-19T04:14:13;17.50;1.00
1476;DHT22;730;48.870;12.542;2023-09-19T04:16:39;17.50;1.00
1476;DHT22;730;48.870;12.542;2023-09-19T04:19:05;17.50;1.00
1476;DHT22;730;48.870;12.542;2023-09-19T04:21:31;17.60;1.00
1476;DHT22;730;48.870;12.542;2023-09-19T04:23:57;17.60;1.00
1476;DHT22;730;48.870;12.542;2023-09-19T04:26:23;17.60;1.00
1476;DHT22;730;48.870;12.542;2023-09-19T04:28:51;17.60;1.00
1476;DHT22;730;48.870;12.542;2023-09-19T04:31:17;17.60;1.00
1476;DHT22;730;48.870;12.542;2023-09-19T04:33:45;17.60;1.00
1476;DHT22;730;48.870;12.542;2023-09-19T04:36:11;17.50;1.00
1476;DHT22;730;48.870;12.542;2023-09-19T04:38:39;17.50;1.00
1476;DHT22;730;48.870;12.542;2023-09-19T04:41:05;17.40;1.00
1476;DHT22;730;48.870;12.542;2023-09-19T04:43:32;17.50;1.00
1476;DHT22;730;48.870;12.542;2023-09-19T04:45:58;17.50;1.00
1476;DHT22;730;48.870;12.542;2023-09-19T04:48:26;17.50;1.00
1476;DHT22;730;48.870;12.542;2023-09-19T04:50:52;17.50;1.00
1476;DHT22;730;48.870;12.542;2023-09-19T04:53:18;17.50;1.00
1476;DHT22;730;48.870;12.542;2023-09-19T04:55:50;17.60;1.00
1476;DHT22;730;48.870;12.542;2023-09-19T04:58:23;17.60;1.00
1476;DHT22;730;48.870;12.542;2023-09-19T05:00:49;17.60;1.00
1476;DHT22;730;48.870;12.542;2023-09-19T05:03:17;17.70;1.00
1476;DHT22;730;48.870;12.542;2023-09-19T05:05:43;17.70;1.00
1476;DHT22;730;48.870;12.542;2023-09-19T05:08:22;17.70;1.00
1476;DHT22;730;48.870;12.542;2023-09-19T05:10:48;17.70;1.00
1476;DHT22;730;48.870;12.542;2023-09-19T05:13:14;17.70;1.00
1476;DHT22;730;48.870;12.542;2023-09-19T05:15:45;17.60;1.00
1476;DHT22;730;48.870;12.542;2023-09-19T05:18:11;17.60;1.00
1476;DHT22;730;48.870;12.542;2023-09-19T05:20:37;17.70;1.00
1476;DHT22;730;48.870;12.542;2023-09-19T05:23:06;17.70;1.00
1476;DHT22;730;48.870;12.542;2023-09-19T05:25:36;17.70;1.00
1476;DHT22;730;48.870;12.542;2023-09-19T05:28:09;17.70;1.00
1476;DHT22;730;48.870;12.542;2023-09-19T05:30:36;17.70;1.00
1476;DHT22;730;48.870;12.542;2023-09-19T05:33:02;17.70;1.00
1476;DHT22;730;48.870;12.542;2023-09-19T05:35:30;17.70;1.00
1476;DHT22;730;48.870;12.542;2023-09-19T05:37:57;17.80;1.00
1476;DHT22;730;48.870;12.542;2023-09-19T05:40:24;17.80;1.00
1476;DHT22;730;48.870;12.542;2023-09-19T05:42:50;17.80;1.00
1476;DHT22;730;48.870;12.542;2023-09-19T05:45:17;17.80;1.00
1476;DHT22;730;48.870;12.542;2023-09-19T05:47:50;17.80;1.00
1476;DHT22;730;48.870;12.542;2023-09-19T05:50:17;17.80;1.00
1476;DHT22;730;48.870;12.542;2023-09-19T05:52:52;17.90;1.00
1476;DHT22;730;48.870;12.542;2023-09-19T05:55:18;17.90;1.00
1476;DHT22;730;48.870;12.542;2023-09-19T05:57:49;17.90;1.00
1476;DHT22;730;48.870;12.542;2023-09-19T06:00:16;17.90;1.00
1476;DHT22;730;48.870;12.542;2023-09-19T06:02:43;17.90;1.00
1476;DHT22;730;48.870;12.542;2023-09-19T06:05:10;17.90;1.00
1476;DHT22;730;48.870;12.542;2023-09-19T06:07:37;17.90;1.00
1476;DHT22;730;48.870;12.542;2023-09-19T06:10:04;17.90;1.00
1476;DHT22;730;48.870;12.542;2023-09-19T06:12:41;17.90;1.00
1476;DHT22;730;48.870;12.542;2023-09-19T06:15:10;17.90;1.00
1476;DHT22;730;48.870;12.542;2023-09-19T06:17:53;17.90;1.00
1476;DHT22;730;48.870;12.542;2023-09-19T06:20:23;18.00;1.00
1476;DHT22;730;48.870;12.542;2023-09-19T06:22:50;18.00;1.00
1476;DHT22;730;48.870;12.542;2023-09-19T06:25:16;18.00;1.00
1476;DHT22;730;48.870;12.542;2023-09-19T06:27:46;18.10;1.00
1476;DHT22;730;48.870;12.542;2023-09-19T06:30:12;18.10;1.00
1476;DHT22;730;48.870;12.542;2023-09-19T06:32:40;18.20;1.00
1476;DHT22;730;48.870;12.542;2023-09-19T06:35:10;18.30;1.00
1476;DHT22;730;48.870;12.542;2023-09-19T06:37:37;18.40;1.00
1476;DHT22;730;48.870;12.542;2023-09-19T06:40:08;18.60;1.00
1476;DHT22;730;48.870;12.542;2023-09-19T06:43:00;18.80;1.00
1476;DHT22;730;48.870;12.542;2023-09-19T06:45:28;19.10;1.00
1476;DHT22;730;48.870;12.542;2023-09-19T06:47:54;19.40;1.00
1476;DHT22;730;48.870;12.542;2023-09-19T06:50:23;19.70;1.00
1476;DHT22;730;48.870;12.542;2023-09-19T06:52:52;19.90;1.00
1476;DHT22;730;48.870;12.542;2023-09-19T06:55:20;20.20;1.00
1476;DHT22;730;48.870;12.542;2023-09-19T06:57:47;20.40;1.00
1476;DHT22;730;48.870;12.542;2023-09-19T07:00:14;20.70;1.00
1476;DHT22;730;48.870;12.542;2023-09-19T07:02:57;21.00;1.00
1476;DHT22;730;48.870;12.542;2023-09-19T07:05:24;21.30;1.00
1476;DHT22;730;48.870;12.542;2023-09-19T07:07:50;21.70;1.00
1476;DHT22;730;48.870;12.542;2023-09-19T07:10:16;22.00;1.00
1476;DHT22;730;48.870;12.542;2023-09-19T07:12:43;22.40;1.00
1476;DHT22;730;48.870;12.542;2023-09-19T07:15:10;22.80;1.00
1476;DHT22;730;48.870;12.542;2023-09-19T07:17:36;23.20;1.00
1476;DHT22;730;48.870;12.542;2023-09-19T07:20:02;23.60;1.00
1476;DHT22;730;48.870;12.542;2023-09-19T07:22:34;23.90;1.00
1476;DHT22;730;48.870;12.542;2023-09-19T07:25:00;24.30;1.00
1476;DHT22;730;48.870;12.542;2023-09-19T07:27:26;24.40;1.00
1476;DHT22;730;48.870;12.542;2023-09-19T07:29:52;24.50;1.00
1476;DHT22;730;48.870;12.542;2023-09-19T07:32:18;24.40;1.00
1476;DHT22;730;48.870;12.542;2023-09-19T07:34:44;24.40;1.00
1476;DHT22;730;48.870;12.542;2023-09-19T07:37:10;24.40;1.00
1476;DHT22;730;48.870;12.542;2023-09-19T07:39:38;24.30;1.00
1476;DHT22;730;48.870;12.542;2023-09-19T07:42:07;24.10;1.00
1476;DHT22;730;48.870;12.542;2023-09-19T07:44:35;24.00;1.00
1476;DHT22;730;48.870;12.542;2023-09-19T07:47:01;23.80;1.00
1476;DHT22;730;48.870;12.542;2023-09-19T07:49:29;23.60;1.00
1476;DHT22;730;48.870;12.542;2023-09-19T07:51:55;23.50;1.00
1476;DHT22;730;48.870;12.542;2023-09-19T07:54:23;23.40;1.00
1476;DHT22;730;48.870;12.542;2023-09-19T07:56:49;23.40;1.00
1476;DHT22;730;48.870;12.542;2023-09-19T07:59:15;23.40;1.00
1476;DHT22;730;48.870;12.542;2023-09-19T08:01:41;23.40;1.00
1476;DHT22;730;48.870;12.542;2023-09-19T08:04:09;23.50;1.00
1476;DHT22;730;48.870;12.542;2023-09-19T08:06:35;23.60;1.00
1476;DHT22;730;48.870;12.542;2023-09-19T08:09:04;23.90;1.00
1476;DHT22;730;48.870;12.542;2023-09-19T08:11:33;24.10;1.00
1476;DHT22;730;48.870;12.542;2023-09-19T08:13:59;24.40;1.00
1476;DHT22;730;48.870;12.542;2023-09-19T08:16:26;24.60;1.00
1476;DHT22;730;48.870;12.542;2023-09-19T08:18:52;24.70;1.00
1476;DHT22;730;48.870;12.542;2023-09-19T08:21:22;24.60;1.00
1476;DHT22;730;48.870;12.542;2023-09-19T08:23:50;24.40;1.00
1476;DHT22;730;48.870;12.542;2023-09-19T08:26:16;24.30;1.00
1476;DHT22;730;48.870;12.542;2023-09-19T08:28:42;24.20;1.00
1476;DHT22;730;48.870;12.542;2023-09-19T08:31:08;24.10;1.00
1476;DHT22;730;48.870;12.542;2023-09-19T08:33:36;23.90;1.00
1476;DHT22;730;48.870;12.542;2023-09-19T08:36:05;23.90;1.00
1476;DHT22;730;48.870;12.542;2023-09-19T08:38:34;23.70;1.00
1476;DHT22;730;48.870;12.542;2023-09-19T08:41:06;23.70;1.00
1476;DHT22;730;48.870;12.542;2023-09-19T08:43:32;23.60;1.00
1476;DHT22;730;48.870;12.542;2023-09-19T08:46:11;23.70;1.00
1476;DHT22;730;48.870;12.542;2023-09-19T08:52:00;23.60;1.00
1476;DHT22;730;48.870;12.542;2023-09-19T08:54:32;23.60;1.00
1476;DHT22;730;48.870;12.542;2023-09-19T08:57:04;23.60;1.00
1476;DHT22;730;48.870;12.542;2023-09-19T08:59:34;23.50;1.00
1476;DHT22;730;48.870;12.542;2023-09-19T09:02:02;23.50;1.00
1476;DHT22;730;48.870;12.542;2023-09-19T09:04:29;23.50;1.00
1476;DHT22;730;48.870;12.542;2023-09-19T09:06:56;23.60;1.00
1476;DHT22;730;48.870;12.542;2023-09-19T09:09:24;23.70;1.00
1476;DHT22;730;48.870;12.542;2023-09-19T09:11:50;23.90;1.00
1476;DHT22;730;48.870;12.542;2023-09-19T09:14:22;24.20;1.00
1476;DHT22;730;48.870;12.542;2023-09-19T09:16:57;24.50;1.00
1476;DHT22;730;48.870;12.542;2023-09-19T09:19:25;24.80;1.00
1476;DHT22;730;48.870;12.542;2023-09-19T09:21:51;25.00;1.00
1476;DHT22;730;48.870;12.542;2023-09-19T09:24:26;25.10;1.00
1476;DHT22;730;48.870;12.542;2023-09-19T09:26:55;25.20;1.00
1476;DHT22;730;48.870;12.542;2023-09-19T09:32:29;25.20;1.00
1476;DHT22;730;48.870;12.542;2023-09-19T09:34:59;25.10;1.00
1476;DHT22;730;48.870;12.542;2023-09-19T09:37:27;25.00;1.00
1476;DHT22;730;48.870;12.542;2023-09-19T09:40:02;24.90;1.00
1476;DHT22;730;48.870;12.542;2023-09-19T09:42:40;24.80;1.00
1476;DHT22;730;48.870;12.542;2023-09-19T09:45:20;24.70;1.00
1476;DHT22;730;48.870;12.542;2023-09-19T09:47:59;24.60;1.00
1476;DHT22;730;48.870;12.542;2023-09-19T09:50:31;24.50;1.00
1476;DHT22;730;48.870;12.542;2023-09-19T09:53:24;24.40;1.00
1476;DHT22;730;48.870;12.542;2023-09-19T09:56:08;24.20;1.00
1476;DHT22;730;48.870;12.542;2023-09-19T09:58:50;24.10;1.00
1476;DHT22;730;48.870;12.542;2023-09-19T10:01:21;23.90;1.00
1476;DHT22;730;48.870;12.542;2023-09-19T10:03:58;23.80;1.00
1476;DHT22;730;48.870;12.542;2023-09-19T10:06:24;23.60;1.00
1476;DHT22;730;48.870;12.542;2023-09-19T10:09:04;23.40;1.00
1476;DHT22;730;48.870;12.542;2023-09-19T10:11:47;23.30;1.00
1476;DHT22;730;48.870;12.542;2023-09-19T10:14:17;23.10;1.00
1476;DHT22;730;48.870;12.542;2023-09-19T10:16:48;23.10;1.00
1476;DHT22;730;48.870;12.542;2023-09-19T10:19:32;22.90;1.00
1476;DHT22;730;48.870;12.542;2023-09-19T10:22:01;22.80;1.00
1476;DHT22;730;48.870;12.542;2023-09-19T10:24:28;22.70;1.00
1476;DHT22;730;48.870;12.542;2023-09-19T10:26:55;22.50;1.00
1476;DHT22;730;48.870;12.542;2023-09-19T10:29:21;22.10;1.00
1476;DHT22;730;48.870;12.542;2023-09-19T10:31:50;21.50;1.00
1476;DHT22;730;48.870;12.542;2023-09-19T10:34:19;21.00;1.00
1476;DHT22;730;48.870;12.542;2023-09-19T10:36:46;20.60;1.00
1476;DHT22;730;48.870;12.542;2023-09-19T10:39:15;20.30;1.00
1476;DHT22;730;48.870;12.542;2023-09-19T10:41:50;20.00;1.00
1476;DHT22;730;48.870;12.542;2023-09-19T10:44:24;19.70;1.00
1476;DHT22;730;48.870;12.542;2023-09-19T10:46:54;19.50;1.00
1476;DHT22;730;48.870;12.542;2023-09-19T10:49:21;19.40;1.00
1476;DHT22;730;48.870;12.542;2023-09-19T10:51:52;19.30;1.00
1476;DHT22;730;48.870;12.542;2023-09-19T10:54:23;19.30;1.00
1476;DHT22;730;48.870;12.542;2023-09-19T10:56:53;19.30;1.00
1476;DHT22;730;48.870;12.542;2023-09-19T10:59:20;19.40;1.00
1476;DHT22;730;48.870;12.542;2023-09-19T11:01:51;19.50;1.00
1476;DHT22;730;48.870;12.542;2023-09-19T11:04:31;19.60;1.00
1476;DHT22;730;48.870;12.542;2023-09-19T11:07:10;19.60;1.00
1476;DHT22;730;48.870;12.542;2023-09-19T11:09:51;19.70;1.00
1476;DHT22;730;48.870;12.542;2023-09-19T11:14:59;19.80;1.00
1476;DHT22;730;48.870;12.542;2023-09-19T11:30:44;19.80;1.00
1476;DHT22;730;48.870;12.542;2023-09-19T11:36:17;19.80;1.00
1476;DHT22;730;48.870;12.542;2023-09-19T11:49:17;19.90;1.00
1476;DHT22;730;48.870;12.542;2023-09-19T11:51:52;19.90;1.00
1476;DHT22;730;48.870;12.542;2023-09-19T11:54:19;20.00;1.00
1476;DHT22;730;48.870;12.542;2023-09-19T11:56:52;20.20;1.00
1476;DHT22;730;48.870;12.542;2023-09-19T11:59:27;20.50;1.00
1476;DHT22;730;48.870;12.542;2023-09-19T12:02:07;20.70;1.00
1476;DHT22;730;48.870;12.542;2023-09-19T12:04:38;21.00;1.00
1476;DHT22;730;48.870;12.542;2023-09-19T12:09:32;21.50;1.00
1476;DHT22;730;48.870;12.542;2023-09-19T12:11:58;21.70;1.00
1476;DHT22;730;48.870;12.542;2023-09-19T12:14:26;21.90;1.00
1476;DHT22;730;48.870;12.542;2023-09-19T12:16:57;22.10;1.00
1476;DHT22;730;48.870;12.542;2023-09-19T12:19:24;22.20;1.00
1476;DHT22;730;48.870;12.542;2023-09-19T12:22:00;22.40;1.00
1476;DHT22;730;48.870;12.542;2023-09-19T12:24:31;22.50;1.00
1476;DHT22;730;48.870;12.542;2023-09-19T12:27:05;22.60;1.00
1476;DHT22;730;48.870;12.542;2023-09-19T12:29:32;22.70;1.00
1476;DHT22;730;48.870;12.542;2023-09-19T12:32:07;22.90;1.00
1476;DHT22;730;48.870;12.542;2023-09-19T12:34:33;23.10;1.00
1476;DHT22;730;48.870;12.542;2023-09-19T12:37:14;23.40;1.00
1476;DHT22;730;48.870;12.542;2023-09-19T12:39:49;23.60;1.00
1476;DHT22;730;48.870;12.542;2023-09-19T12:42:18;23.90;1.00
1476;DHT22;730;48.870;12.542;2023-09-19T12:44:53;24.10;1.00
1476;DHT22;730;48.870;12.542;2023-09-19T12:47:23;24.20;1.00
1476;DHT22;730;48.870;12.542;2023-09-19T12:52:47;24.60;1.00
1476;DHT22;730;48.870;12.542;2023-09-19T12:55:30;24.80;1.00
1476;DHT22;730;48.870;12.542;2023-09-19T12:58:08;25.00;1.00
1476;DHT22;730;48.870;12.542;2023-09-19T13:00:37;25.30;1.00
1476;DHT22;730;48.870;12.542;2023-09-19T13:08:27;26.00;1.00
1476;DHT22;730;48.870;12.542;2023-09-19T13:11:11;26.20;1.00
1476;DHT22;730;48.870;12.542;2023-09-19T13:13:41;26.50;1.00
1476;DHT22;730;48.870;12.542;2023-09-19T13:16:07;26.80;1.00
1476;DHT22;730;48.870;12.542;2023-09-19T13:18:48;26.80;1.00
1476;DHT22;730;48.870;12.542;2023-09-19T13:21:26;27.00;1.00
1476;DHT22;730;48.870;12.542;2023-09-19T13:23:58;27.20;1.00
1476;DHT22;730;48.870;12.542;2023-09-19T13:26:42;27.20;1.00
1476;DHT22;730;48.870;12.542;2023-09-19T13:29:08;27.30;1.00
1476;DHT22;730;48.870;12.542;2023-09-19T13:31:34;27.40;1.00
1476;DHT22;730;48.870;12.542;2023-09-19T13:34:00;27.60;1.00
1476;DHT22;730;48.870;12.542;2023-09-19T13:36:26;27.70;1.00
1476;DHT22;730;48.870;12.542;2023-09-19T13:38:52;27.80;1.00
1476;DHT22;730;48.870;12.542;2023-09-19T13:41:19;27.70;1.00
1476;DHT22;730;48.870;12.542;2023-09-19T13:43:45;27.50;1.00
1476;DHT22;730;48.870;12.542;2023-09-19T13:46:14;27.50;1.00
1476;DHT22;730;48.870;12.542;2023-09-19T13:48:42;27.40;1.00
1476;DHT22;730;48.870;12.542;2023-09-19T13:51:08;27.50;1.00
1476;DHT22;730;48.870;12.542;2023-09-19T13:53:34;27.60;1.00
1476;DHT22;730;48.870;12.542;2023-09-19T13:56:00;27.80;1.00
1476;DHT22;730;48.870;12.542;2023-09-19T13:58:26;28.10;1.00
1476;DHT22;730;48.870;12.542;2023-09-19T14:00:53;28.40;1.00
1476;DHT22;730;48.870;12.542;2023-09-19T14:03:23;28.50;1.00
1476;DHT22;730;48.870;12.542;2023-09-19T14:05:49;28.60;1.00
1476;DHT22;730;48.870;12.542;2023-09-19T14:08:17;28.60;1.00
1476;DHT22;730;48.870;12.542;2023-09-19T14:10:43;28.70;1.00
1476;DHT22;730;48.870;12.542;2023-09-19T14:13:09;28.60;1.00
1476;DHT22;730;48.870;12.542;2023-09-19T14:15:38;28.60;1.00
1476;DHT22;730;48.870;12.542;2023-09-19T14:18:05;28.60;1.00
1476;DHT22;730;48.870;12.542;2023-09-19T14:20:31;28.60;1.00
1476;DHT22;730;48.870;12.542;2023-09-19T14:22:57;28.80;1.00
1476;DHT22;730;48.870;12.542;2023-09-19T14:25:27;28.90;1.00
1476;DHT22;730;48.870;12.542;2023-09-19T14:27:54;29.20;1.00
1476;DHT22;730;48.870;12.542;2023-09-19T14:30:20;29.40;1.00
1476;DHT22;730;48.870;12.542;2023-09-19T14:32:47;29.80;1.00
1476;DHT22;730;48.870;12.542;2023-09-19T14:35:13;30.10;1.00
1476;DHT22;730;48.870;12.542;2023-09-19T14:37:39;30.50;1.00
1476;DHT22;730;48.870;12.542;2023-09-19T14:40:06;30.80;1.00
1476;DHT22;730;48.870;12.542;2023-09-19T14:42:37;30.80;1.00
1476;DHT22;730;48.870;12.542;2023-09-19T14:45:04;31.50;1.00
1476;DHT22;730;48.870;12.542;2023-09-19T14:47:31;32.20;1.00
1476;DHT22;730;48.870;12.542;2023-09-19T14:50:02;32.70;1.00
1476;DHT22;730;48.870;12.542;2023-09-19T14:52:35;33.40;1.00
1476;DHT22;730;48.870;12.542;2023-09-19T14:55:02;34.60;1.00
1476;DHT22;730;48.870;12.542;2023-09-19T14:57:29;35.50;1.00
1476;DHT22;730;48.870;12.542;2023-09-19T14:59:55;36.80;1.00
1476;DHT22;730;48.870;12.542;2023-09-19T15:02:21;37.70;1.00
1476;DHT22;730;48.870;12.542;2023-09-19T15:04:47;38.40;1.00
1476;DHT22;730;48.870;12.542;2023-09-19T15:07:13;38.90;1.00
1476;DHT22;730;48.870;12.542;2023-09-19T15:09:41;39.30;1.00
1476;DHT22;730;48.870;12.542;2023-09-19T15:12:07;39.70;1.00
1476;DHT22;730;48.870;12.542;2023-09-19T15:14:33;39.90;1.00
1476;DHT22;730;48.870;12.542;2023-09-19T15:17:00;40.20;1.00
1476;DHT22;730;48.870;12.542;2023-09-19T15:19:26;40.80;1.00
1476;DHT22;730;48.870;12.542;2023-09-19T15:21:52;40.70;1.00
1476;DHT22;730;48.870;12.542;2023-09-19T15:24:18;40.00;1.00
1476;DHT22;730;48.870;12.542;2023-09-19T15:26:45;39.20;1.00
1476;DHT22;730;48.870;12.542;2023-09-19T15:29:12;38.60;1.00
1476;DHT22;730;48.870;12.542;2023-09-19T15:31:38;38.00;1.00
1476;DHT22;730;48.870;12.542;2023-09-19T15:34:05;37.80;1.00
1476;DHT22;730;48.870;12.542;2023-09-19T15:36:34;37.40;1.00
1476;DHT22;730;48.870;12.542;2023-09-19T15:39:07;37.40;1.00
1476;DHT22;730;48.870;12.542;2023-09-19T15:41:37;37.20;1.00
1476;DHT22;730;48.870;12.542;2023-09-19T15:44:14;37.30;1.00
1476;DHT22;730;48.870;12.542;2023-09-19T15:46:41;37.40;1.00
1476;DHT22;730;48.870;12.542;2023-09-19T15:49:07;36.80;1.00
1476;DHT22;730;48.870;12.542;2023-09-19T15:51:34;35.80;1.00
1476;DHT22;730;48.870;12.542;2023-09-19T15:54:08;34.80;1.00
1476;DHT22;730;48.870;12.542;2023-09-19T15:56:34;33.60;1.00
1476;DHT22;730;48.870;12.542;2023-09-19T15:59:04;32.70;1.00
1476;DHT22;730;48.870;12.542;2023-09-19T16:01:30;31.80;1.00
1476;DHT22;730;48.870;12.542;2023-09-19T16:03:56;31.00;1.00
1476;DHT22;730;48.870;12.542;2023-09-19T16:06:24;30.30;1.00
1476;DHT22;730;48.870;12.542;2023-09-19T16:08:52;29.80;1.00
1476;DHT22;730;48.870;12.542;2023-09-19T16:11:19;29.40;1.00
1476;DHT22;730;48.870;12.542;2023-09-19T16:13:49;28.90;1.00
1476;DHT22;730;48.870;12.542;2023-09-19T16:16:17;28.40;1.00
1476;DHT22;730;48.870;12.542;2023-09-19T16:18:46;28.00;1.00
1476;DHT22;730;48.870;12.542;2023-09-19T16:21:14;27.60;1.00
1476;DHT22;730;48.870;12.542;2023-09-19T16:23:40;27.20;1.00
1476;DHT22;730;48.870;12.542;2023-09-19T16:26:09;26.80;1.00
1476;DHT22;730;48.870;12.542;2023-09-19T16:28:36;26.50;1.00
1476;DHT22;730;48.870;12.542;2023-09-19T16:31:03;26.30;1.00
1476;DHT22;730;48.870;12.542;2023-09-19T16:33:32;26.10;1.00
1476;DHT22;730;48.870;12.542;2023-09-19T16:36:02;26.00;1.00
1476;DHT22;730;48.870;12.542;2023-09-19T16:38:28;25.80;1.00
1476;DHT22;730;48.870;12.542;2023-09-19T16:40:58;25.70;1.00
1476;DHT22;730;48.870;12.542;2023-09-19T16:43:26;25.60;1.00
1476;DHT22;730;48.870;12.542;2023-09-19T16:45:56;25.40;1.00
1476;DHT22;730;48.870;12.542;2023-09-19T16:48:23;25.30;1.00
1476;DHT22;730;48.870;12.542;2023-09-19T16:50:50;25.20;1.00
1476;DHT22;730;48.870;12.542;2023-09-19T16:53:16;25.10;1.00
1476;DHT22;730;48.870;12.542;2023-09-19T16:55:44;24.90;1.00
1476;DHT22;730;48.870;12.542;2023-09-19T16:58:10;24.70;1.00
1476;DHT22;730;48.870;12.542;2023-09-19T17:00:37;24.50;1.00
1476;DHT22;730;48.870;12.542;2023-09-19T17:03:03;24.30;1.00
1476;DHT22;730;48.870;12.542;2023-09-19T17:05:30;24.20;1.00
1476;DHT22;730;48.870;12.542;2023-09-19T17:07:56;24.10;1.00
1476;DHT22;730;48.870;12.542;2023-09-19T17:10:31;24.00;1.00
1476;DHT22;730;48.870;12.542;2023-09-19T17:13:01;23.90;1.00
1476;DHT22;730;48.870;12.542;2023-09-19T17:15:27;23.90;1.00
1476;DHT22;730;48.870;12.542;2023-09-19T17:17:53;23.80;1.00
1476;DHT22;730;48.870;12.542;2023-09-19T17:20:20;23.70;1.00
1476;DHT22;730;48.870;12.542;2023-09-19T17:22:46;23.50;1.00
1476;DHT22;730;48.870;12.542;2023-09-19T17:25:12;23.40;1.00
1476;DHT22;730;48.870;12.542;2023-09-19T17:27:38;23.30;1.00